Phoenix — LZEL — position and weather

sailwx.info

Track history (hours):
 
Tides and Currents Weather Stations Pressure Air Temp Water Temp Dewpoint Dewpoint Depression Visibility Wind Speed Wind Dir Waves Ship Positions

Phoenix

Last reported at 2018-Jun-16 00:47 UTC. Time now 2018-Jul-17 07:36 UTC.
Position N 42°16' E 034°43'.
Warning: this ship's position is 31 days out of date.

Length 147 m; draft 5.6 m.

Type: Cargo ship. MMSI: 207137000.

Date/timePositionNaut miles runAvg speedWind from/ knotsBaromVisibWave heightAir tempDewpointWater temp
2018-Jun-16 00:47N 42°16' E 034°43'3 9.7
2018-Jun-16 00:30N 42°16' E 034°40'5 9.9
2018-Jun-16 00:00N 42°15' E 034°33'510.0
2018-Jun-15 23:30N 42°15' E 034°26'1010.0
2018-Jun-15 22:31N 42°14' E 034°13'010.0
2018-Jun-15 22:30N 42°14' E 034°13'510.0
2018-Jun-15 22:00N 42°14' E 034°06'510.0
2018-Jun-15 21:30N 42°13' E 033°59'510.1
2018-Jun-15 21:00N 42°13' E 033°53'710.2
2018-Jun-15 20:20N 42°12' E 033°43'410.3
2018-Jun-15 19:55N 42°12' E 033°38'410.5
2018-Jun-15 19:30N 42°11' E 033°32'510.2
2018-Jun-15 19:00N 42°11' E 033°25'510.1
2018-Jun-15 18:30N 42°11' E 033°18'510.2
2018-Jun-15 18:00N 42°10' E 033°11'5 9.9
2018-Jun-15 17:29N 42°09' E 033°04'510.4
2018-Jun-15 16:57N 42°07' E 032°57'510.4
2018-Jun-15 16:30N 42°06' E 032°51'610.4
2018-Jun-15 15:53N 42°04' E 032°43'410.8
2018-Jun-15 15:30N 42°03' E 032°38'610.7
2018-Jun-15 14:58N 42°01' E 032°30'510.7
2018-Jun-15 14:29N 41°59' E 032°24'510.7
2018-Jun-15 14:00N 41°58' E 032°17'510.4
2018-Jun-15 13:30N 41°56' E 032°10'510.3
2018-Jun-15 13:00N 41°55' E 032°04'1110.2
2018-Jun-15 11:53N 41°51' E 031°49'610.2
2018-Jun-15 11:21N 41°50' E 031°42'5810.4
2018-Jun-15 05:45N 41°33' E 030°28'510.1
2018-Jun-15 05:14N 41°31' E 030°21'310.1
2018-Jun-15 04:54N 41°30' E 030°17'510.2
2018-Jun-15 04:23N 41°28' E 030°10'34 8.7
2018-Jun-15 00:28N 41°18' E 029°26'510.2
2018-Jun-14 23:58N 41°17' E 029°20'38 7.8
2018-Jun-14 19:06N 40°43' E 028°59'110.0
2018-Jun-14 19:01N 40°42' E 028°59'1 1.5
2018-Jun-14 18:30N 40°43' E 028°59'1 2.9
2018-Jun-14 18:00N 40°44' E 028°58'13 0.8
2018-Jun-14 00:51N 40°57' E 028°54'0 0.2
2018-Jun-14 00:30N 40°57' E 028°54'3 5.6
2018-Jun-14 00:00N 40°56' E 028°57'5 9.0
2018-Jun-13 23:30N 40°53' E 028°53'5 9.6
2018-Jun-13 23:00N 40°50' E 028°48'5 9.8
2018-Jun-13 22:30N 40°48' E 028°42'5 9.6
2018-Jun-13 22:00N 40°45' E 028°37'5 9.2
2018-Jun-13 21:30N 40°43' E 028°32'5 9.1
2018-Jun-13 20:58N 40°39' E 028°27'4 9.5
2018-Jun-13 20:31N 40°36' E 028°23'5 9.3
2018-Jun-13 19:58N 40°33' E 028°18'5 9.3
2018-Jun-13 19:29N 40°30' E 028°14'5 9.4
2018-Jun-13 18:55N 40°26' E 028°09'4 9.2
2018-Jun-13 18:28N 40°25' E 028°04'5 9.3
2018-Jun-13 17:56N 40°23' E 027°58'  
2018-Jun-08 18:22N 40°26' E 028°04'0 0.0
2018-Jun-08 17:58N 40°26' E 028°04'0 0.0
2018-Jun-08 17:10N 40°26' E 028°04'0 0.0
2018-Jun-08 16:46N 40°26' E 028°04'0 0.0
2018-Jun-08 16:28N 40°26' E 028°04'89 1.8
2018-Jun-06 15:43N 40°01' E 026°12'2 6.6
2018-Jun-06 15:20N 40°00' E 026°09'95 9.0
2018-Jun-06 04:51N 38°39' E 025°05'4 9.7
2018-Jun-06 04:28N 38°36' E 025°03'  
Track history (hours):
 
Tides and Currents Weather Stations Pressure Air Temp Water Temp Dewpoint Dewpoint Depression Visibility Wind Speed Wind Dir Waves Ship Positions

Phoenix

Last reported at 2018-Jun-16 00:47 UTC. Time now 2018-Jul-17 07:36 UTC.
Position N 42°16' E 034°43'.
Warning: this ship's position is 31 days out of date.

Length 147 m; draft 5.6 m.

Type: Cargo ship. MMSI: 207137000.

Date/timePositionNaut miles runAvg speedWind from/ knotsBaromVisibWave heightAir tempDewpointWater temp
2018-Jun-16 00:47N 42°16' E 034°43'3 9.7
2018-Jun-16 00:30N 42°16' E 034°40'5 9.9
2018-Jun-16 00:00N 42°15' E 034°33'510.0
2018-Jun-15 23:30N 42°15' E 034°26'1010.0
2018-Jun-15 22:31N 42°14' E 034°13'010.0
2018-Jun-15 22:30N 42°14' E 034°13'510.0
2018-Jun-15 22:00N 42°14' E 034°06'510.0
2018-Jun-15 21:30N 42°13' E 033°59'510.1
2018-Jun-15 21:00N 42°13' E 033°53'710.2
2018-Jun-15 20:20N 42°12' E 033°43'410.3
2018-Jun-15 19:55N 42°12' E 033°38'410.5
2018-Jun-15 19:30N 42°11' E 033°32'510.2
2018-Jun-15 19:00N 42°11' E 033°25'510.1
2018-Jun-15 18:30N 42°11' E 033°18'510.2
2018-Jun-15 18:00N 42°10' E 033°11'5 9.9
2018-Jun-15 17:29N 42°09' E 033°04'510.4
2018-Jun-15 16:57N 42°07' E 032°57'510.4
2018-Jun-15 16:30N 42°06' E 032°51'610.4
2018-Jun-15 15:53N 42°04' E 032°43'410.8
2018-Jun-15 15:30N 42°03' E 032°38'610.7
2018-Jun-15 14:58N 42°01' E 032°30'510.7
2018-Jun-15 14:29N 41°59' E 032°24'510.7
2018-Jun-15 14:00N 41°58' E 032°17'510.4
2018-Jun-15 13:30N 41°56' E 032°10'510.3
2018-Jun-15 13:00N 41°55' E 032°04'1110.2
2018-Jun-15 11:53N 41°51' E 031°49'610.2
2018-Jun-15 11:21N 41°50' E 031°42'5810.4
2018-Jun-15 05:45N 41°33' E 030°28'510.1
2018-Jun-15 05:14N 41°31' E 030°21'310.1
2018-Jun-15 04:54N 41°30' E 030°17'510.2
2018-Jun-15 04:23N 41°28' E 030°10'34 8.7
2018-Jun-15 00:28N 41°18' E 029°26'510.2
2018-Jun-14 23:58N 41°17' E 029°20'38 7.8
2018-Jun-14 19:06N 40°43' E 028°59'110.0
2018-Jun-14 19:01N 40°42' E 028°59'1 1.5
2018-Jun-14 18:30N 40°43' E 028°59'1 2.9
2018-Jun-14 18:00N 40°44' E 028°58'13 0.8
2018-Jun-14 00:51N 40°57' E 028°54'0 0.2
2018-Jun-14 00:30N 40°57' E 028°54'3 5.6
2018-Jun-14 00:00N 40°56' E 028°57'5 9.0
2018-Jun-13 23:30N 40°53' E 028°53'5 9.6
2018-Jun-13 23:00N 40°50' E 028°48'5 9.8
2018-Jun-13 22:30N 40°48' E 028°42'5 9.6
2018-Jun-13 22:00N 40°45' E 028°37'5 9.2
2018-Jun-13 21:30N 40°43' E 028°32'5 9.1
2018-Jun-13 20:58N 40°39' E 028°27'4 9.5
2018-Jun-13 20:31N 40°36' E 028°23'5 9.3
2018-Jun-13 19:58N 40°33' E 028°18'5 9.3
2018-Jun-13 19:29N 40°30' E 028°14'5 9.4
2018-Jun-13 18:55N 40°26' E 028°09'4 9.2
2018-Jun-13 18:28N 40°25' E 028°04'5 9.3
2018-Jun-13 17:56N 40°23' E 027°58'  
2018-Jun-08 18:22N 40°26' E 028°04'0 0.0
2018-Jun-08 17:58N 40°26' E 028°04'0 0.0
2018-Jun-08 17:10N 40°26' E 028°04'0 0.0
2018-Jun-08 16:46N 40°26' E 028°04'0 0.0
2018-Jun-08 16:28N 40°26' E 028°04'89 1.8
2018-Jun-06 15:43N 40°01' E 026°12'2 6.6
2018-Jun-06 15:20N 40°00' E 026°09'95 9.0
2018-Jun-06 04:51N 38°39' E 025°05'4 9.7
2018-Jun-06 04:28N 38°36' E 025°03'  

Dump ship's entire track history